sensor_id;sensor_type;location;lat;lon;timestamp;P1;durP1;ratioP1;P2;durP2;ratioP2
29940;SDS011;16801;53.562;10.038;2023-05-10T00:00:15;3.03;;;2.67;;
29940;SDS011;16801;53.562;10.038;2023-05-10T00:03:36;5.13;;;2.77;;
29940;SDS011;16801;53.562;10.038;2023-05-10T00:06:57;4.90;;;3.47;;
29940;SDS011;16801;53.562;10.038;2023-05-10T00:10:18;2.63;;;2.10;;
29940;SDS011;16801;53.562;10.038;2023-05-10T00:13:40;2.50;;;2.20;;
29940;SDS011;16801;53.562;10.038;2023-05-10T00:17:00;2.13;;;2.00;;
29940;SDS011;16801;53.562;10.038;2023-05-10T00:20:20;2.33;;;2.13;;
29940;SDS011;16801;53.562;10.038;2023-05-10T00:23:41;3.63;;;2.50;;
29940;SDS011;16801;53.562;10.038;2023-05-10T00:27:03;2.17;;;1.97;;
29940;SDS011;16801;53.562;10.038;2023-05-10T00:30:24;3.93;;;2.03;;
29940;SDS011;16801;53.562;10.038;2023-05-10T00:33:45;5.57;;;2.60;;
29940;SDS011;16801;53.562;10.038;2023-05-10T00:37:05;3.00;;;2.80;;
29940;SDS011;16801;53.562;10.038;2023-05-10T00:40:26;2.27;;;2.00;;
29940;SDS011;16801;53.562;10.038;2023-05-10T00:43:53;2.73;;;1.73;;
29940;SDS011;16801;53.562;10.038;2023-05-10T00:47:14;3.20;;;2.47;;
29940;SDS011;16801;53.562;10.038;2023-05-10T00:50:34;3.13;;;2.47;;
29940;SDS011;16801;53.562;10.038;2023-05-10T00:53:55;2.30;;;2.10;;
29940;SDS011;16801;53.562;10.038;2023-05-10T00:57:15;3.27;;;2.37;;
29940;SDS011;16801;53.562;10.038;2023-05-10T01:00:38;4.07;;;2.10;;
29940;SDS011;16801;53.562;10.038;2023-05-10T01:04:01;4.77;;;3.77;;
29940;SDS011;16801;53.562;10.038;2023-05-10T01:07:22;2.10;;;2.00;;
29940;SDS011;16801;53.562;10.038;2023-05-10T01:10:43;2.63;;;2.43;;
29940;SDS011;16801;53.562;10.038;2023-05-10T01:14:04;2.43;;;2.23;;
29940;SDS011;16801;53.562;10.038;2023-05-10T01:17:26;5.00;;;2.23;;
29940;SDS011;16801;53.562;10.038;2023-05-10T01:20:48;2.77;;;2.17;;
29940;SDS011;16801;53.562;10.038;2023-05-10T01:24:10;2.03;;;1.93;;
29940;SDS011;16801;53.562;10.038;2023-05-10T01:31:17;3.00;;;2.27;;
29940;SDS011;16801;53.562;10.038;2023-05-10T01:34:41;2.00;;;1.90;;
29940;SDS011;16801;53.562;10.038;2023-05-10T01:38:04;3.37;;;3.07;;
29940;SDS011;16801;53.562;10.038;2023-05-10T01:41:28;1.93;;;1.83;;
29940;SDS011;16801;53.562;10.038;2023-05-10T01:44:51;3.53;;;2.17;;
29940;SDS011;16801;53.562;10.038;2023-05-10T01:48:13;2.67;;;2.47;;
29940;SDS011;16801;53.562;10.038;2023-05-10T01:51:38;7.13;;;3.50;;
29940;SDS011;16801;53.562;10.038;2023-05-10T01:55:00;3.67;;;2.43;;
29940;SDS011;16801;53.562;10.038;2023-05-10T01:58:22;2.90;;;2.60;;
29940;SDS011;16801;53.562;10.038;2023-05-10T02:01:44;2.43;;;2.23;;
29940;SDS011;16801;53.562;10.038;2023-05-10T02:05:05;2.30;;;1.83;;
29940;SDS011;16801;53.562;10.038;2023-05-10T02:08:28;3.63;;;2.40;;
29940;SDS011;16801;53.562;10.038;2023-05-10T02:11:50;2.30;;;2.10;;
29940;SDS011;16801;53.562;10.038;2023-05-10T02:15:11;4.83;;;2.60;;
29940;SDS011;16801;53.562;10.038;2023-05-10T02:18:33;3.20;;;2.23;;
29940;SDS011;16801;53.562;10.038;2023-05-10T02:21:55;2.50;;;2.30;;
29940;SDS011;16801;53.562;10.038;2023-05-10T02:25:17;2.33;;;2.13;;
29940;SDS011;16801;53.562;10.038;2023-05-10T02:28:38;3.47;;;2.37;;
29940;SDS011;16801;53.562;10.038;2023-05-10T02:32:00;2.90;;;2.70;;
29940;SDS011;16801;53.562;10.038;2023-05-10T02:35:21;2.57;;;2.37;;
29940;SDS011;16801;53.562;10.038;2023-05-10T02:38:43;2.10;;;1.80;;
29940;SDS011;16801;53.562;10.038;2023-05-10T02:42:04;2.57;;;2.37;;
29940;SDS011;16801;53.562;10.038;2023-05-10T02:45:27;2.80;;;2.43;;
29940;SDS011;16801;53.562;10.038;2023-05-10T02:48:49;2.40;;;2.20;;
29940;SDS011;16801;53.562;10.038;2023-05-10T02:52:10;3.33;;;2.40;;
29940;SDS011;16801;53.562;10.038;2023-05-10T02:55:32;3.70;;;1.73;;
29940;SDS011;16801;53.562;10.038;2023-05-10T02:58:56;3.57;;;2.53;;
29940;SDS011;16801;53.562;10.038;2023-05-10T03:02:17;2.00;;;1.80;;
29940;SDS011;16801;53.562;10.038;2023-05-10T03:05:38;2.70;;;2.07;;
29940;SDS011;16801;53.562;10.038;2023-05-10T03:08:59;2.23;;;2.03;;
29940;SDS011;16801;53.562;10.038;2023-05-10T03:12:21;2.10;;;1.90;;
29940;SDS011;16801;53.562;10.038;2023-05-10T03:15:48;2.70;;;2.50;;
29940;SDS011;16801;53.562;10.038;2023-05-10T03:19:15;8.37;;;2.50;;
29940;SDS011;16801;53.562;10.038;2023-05-10T03:22:38;2.17;;;2.07;;
29940;SDS011;16801;53.562;10.038;2023-05-10T03:26:01;2.00;;;1.80;;
29940;SDS011;16801;53.562;10.038;2023-05-10T03:29:24;2.23;;;2.10;;
29940;SDS011;16801;53.562;10.038;2023-05-10T03:32:47;3.83;;;3.07;;
29940;SDS011;16801;53.562;10.038;2023-05-10T03:36:10;3.30;;;3.00;;
29940;SDS011;16801;53.562;10.038;2023-05-10T03:39:31;3.20;;;1.97;;
29940;SDS011;16801;53.562;10.038;2023-05-10T03:42:53;4.97;;;2.37;;
29940;SDS011;16801;53.562;10.038;2023-05-10T03:46:13;2.33;;;2.07;;
29940;SDS011;16801;53.562;10.038;2023-05-10T03:49:35;3.17;;;2.07;;
29940;SDS011;16801;53.562;10.038;2023-05-10T03:52:56;4.47;;;2.70;;
29940;SDS011;16801;53.562;10.038;2023-05-10T03:56:17;2.30;;;2.10;;
29940;SDS011;16801;53.562;10.038;2023-05-10T03:59:38;5.20;;;3.00;;
29940;SDS011;16801;53.562;10.038;2023-05-10T04:02:59;4.07;;;3.70;;
29940;SDS011;16801;53.562;10.038;2023-05-10T04:06:21;2.53;;;2.33;;
29940;SDS011;16801;53.562;10.038;2023-05-10T04:09:42;6.30;;;2.90;;
29940;SDS011;16801;53.562;10.038;2023-05-10T04:13:02;4.80;;;3.43;;
29940;SDS011;16801;53.562;10.038;2023-05-10T04:16:23;2.63;;;2.40;;
29940;SDS011;16801;53.562;10.038;2023-05-10T04:19:43;3.27;;;3.00;;
29940;SDS011;16801;53.562;10.038;2023-05-10T04:23:06;3.17;;;2.87;;
29940;SDS011;16801;53.562;10.038;2023-05-10T04:26:27;4.77;;;2.83;;
29940;SDS011;16801;53.562;10.038;2023-05-10T04:29:48;2.77;;;2.47;;
29940;SDS011;16801;53.562;10.038;2023-05-10T04:33:08;2.70;;;2.43;;
29940;SDS011;16801;53.562;10.038;2023-05-10T04:36:29;3.03;;;2.73;;
29940;SDS011;16801;53.562;10.038;2023-05-10T04:39:53;4.47;;;2.83;;
29940;SDS011;16801;53.562;10.038;2023-05-10T04:43:13;3.00;;;2.77;;
29940;SDS011;16801;53.562;10.038;2023-05-10T04:46:37;3.60;;;3.23;;
29940;SDS011;16801;53.562;10.038;2023-05-10T04:49:58;2.97;;;2.67;;
29940;SDS011;16801;53.562;10.038;2023-05-10T04:53:18;2.30;;;2.03;;
29940;SDS011;16801;53.562;10.038;2023-05-10T04:56:40;3.47;;;3.17;;
29940;SDS011;16801;53.562;10.038;2023-05-10T05:00:01;2.87;;;2.67;;
29940;SDS011;16801;53.562;10.038;2023-05-10T05:03:22;4.00;;;3.33;;
29940;SDS011;16801;53.562;10.038;2023-05-10T05:06:43;2.77;;;2.57;;
29940;SDS011;16801;53.562;10.038;2023-05-10T05:10:04;2.87;;;2.67;;
29940;SDS011;16801;53.562;10.038;2023-05-10T05:13:28;3.80;;;2.03;;
29940;SDS011;16801;53.562;10.038;2023-05-10T05:16:49;2.30;;;2.13;;
29940;SDS011;16801;53.562;10.038;2023-05-10T05:20:10;8.17;;;2.73;;
29940;SDS011;16801;53.562;10.038;2023-05-10T05:23:30;2.30;;;2.10;;
29940;SDS011;16801;53.562;10.038;2023-05-10T05:26:51;2.60;;;2.40;;
29940;SDS011;16801;53.562;10.038;2023-05-10T05:30:13;3.77;;;2.87;;
29940;SDS011;16801;53.562;10.038;2023-05-10T05:33:33;5.17;;;2.43;;
29940;SDS011;16801;53.562;10.038;2023-05-10T05:36:54;2.33;;;2.23;;
29940;SDS011;16801;53.562;10.038;2023-05-10T05:40:14;2.83;;;2.50;;
29940;SDS011;16801;53.562;10.038;2023-05-10T05:43:35;2.87;;;2.43;;
29940;SDS011;16801;53.562;10.038;2023-05-10T05:46:57;7.33;;;2.73;;
29940;SDS011;16801;53.562;10.038;2023-05-10T05:50:18;6.20;;;2.97;;
29940;SDS011;16801;53.562;10.038;2023-05-10T05:53:38;4.67;;;2.73;;
29940;SDS011;16801;53.562;10.038;2023-05-10T05:56:59;2.40;;;2.20;;
29940;SDS011;16801;53.562;10.038;2023-05-10T06:00:20;4.93;;;2.53;;
29940;SDS011;16801;53.562;10.038;2023-05-10T06:03:42;3.60;;;2.33;;
29940;SDS011;16801;53.562;10.038;2023-05-10T06:07:02;2.83;;;2.50;;
29940;SDS011;16801;53.562;10.038;2023-05-10T06:10:22;3.90;;;2.23;;
29940;SDS011;16801;53.562;10.038;2023-05-10T06:13:44;2.80;;;2.60;;
29940;SDS011;16801;53.562;10.038;2023-05-10T06:17:05;3.57;;;2.20;;
29940;SDS011;16801;53.562;10.038;2023-05-10T06:20:28;2.80;;;2.00;;
29940;SDS011;16801;53.562;10.038;2023-05-10T06:23:50;2.80;;;2.57;;
29940;SDS011;16801;53.562;10.038;2023-05-10T06:27:11;2.20;;;2.10;;
29940;SDS011;16801;53.562;10.038;2023-05-10T06:30:31;12.10;;;2.97;;
29940;SDS011;16801;53.562;10.038;2023-05-10T06:33:51;2.93;;;2.30;;
29940;SDS011;16801;53.562;10.038;2023-05-10T06:37:13;3.53;;;2.77;;
29940;SDS011;16801;53.562;10.038;2023-05-10T06:40:34;3.37;;;2.60;;
29940;SDS011;16801;53.562;10.038;2023-05-10T06:43:55;4.20;;;2.33;;
29940;SDS011;16801;53.562;10.038;2023-05-10T06:47:15;3.10;;;2.80;;
29940;SDS011;16801;53.562;10.038;2023-05-10T06:50:36;2.37;;;2.17;;
29940;SDS011;16801;53.562;10.038;2023-05-10T06:53:57;2.87;;;2.67;;
29940;SDS011;16801;53.562;10.038;2023-05-10T06:57:18;2.40;;;2.20;;
29940;SDS011;16801;53.562;10.038;2023-05-10T07:00:40;3.23;;;2.93;;
29940;SDS011;16801;53.562;10.038;2023-05-10T07:04:02;3.50;;;3.20;;
29940;SDS011;16801;53.562;10.038;2023-05-10T07:07:23;4.10;;;2.97;;
29940;SDS011;16801;53.562;10.038;2023-05-10T07:10:45;2.77;;;2.47;;
29940;SDS011;16801;53.562;10.038;2023-05-10T07:14:06;4.23;;;2.30;;
29940;SDS011;16801;53.562;10.038;2023-05-10T07:17:26;2.87;;;2.67;;
29940;SDS011;16801;53.562;10.038;2023-05-10T07:20:47;3.40;;;2.70;;
29940;SDS011;16801;53.562;10.038;2023-05-10T07:24:07;2.67;;;2.47;;
29940;SDS011;16801;53.562;10.038;2023-05-10T07:27:29;3.93;;;3.53;;
29940;SDS011;16801;53.562;10.038;2023-05-10T07:30:50;5.23;;;3.50;;
29940;SDS011;16801;53.562;10.038;2023-05-10T07:34:10;5.10;;;3.00;;
29940;SDS011;16801;53.562;10.038;2023-05-10T07:37:31;3.10;;;2.80;;
29940;SDS011;16801;53.562;10.038;2023-05-10T07:40:52;4.13;;;3.53;;
29940;SDS011;16801;53.562;10.038;2023-05-10T07:44:13;3.10;;;2.80;;
29940;SDS011;16801;53.562;10.038;2023-05-10T07:47:34;2.93;;;2.63;;
29940;SDS011;16801;53.562;10.038;2023-05-10T07:50:54;9.57;;;3.70;;
29940;SDS011;16801;53.562;10.038;2023-05-10T07:54:15;3.27;;;2.97;;
29940;SDS011;16801;53.562;10.038;2023-05-10T07:57:37;3.10;;;2.60;;
29940;SDS011;16801;53.562;10.038;2023-05-10T08:00:59;2.30;;;2.00;;
29940;SDS011;16801;53.562;10.038;2023-05-10T08:04:20;2.67;;;2.47;;
29940;SDS011;16801;53.562;10.038;2023-05-10T08:07:41;6.00;;;3.50;;
29940;SDS011;16801;53.562;10.038;2023-05-10T08:11:02;2.67;;;2.40;;
29940;SDS011;16801;53.562;10.038;2023-05-10T08:14:22;3.23;;;3.03;;
29940;SDS011;16801;53.562;10.038;2023-05-10T08:17:44;2.93;;;2.73;;
29940;SDS011;16801;53.562;10.038;2023-05-10T08:21:05;3.43;;;3.13;;
29940;SDS011;16801;53.562;10.038;2023-05-10T08:24:28;2.13;;;2.03;;
29940;SDS011;16801;53.562;10.038;2023-05-10T08:27:49;2.93;;;2.07;;
29940;SDS011;16801;53.562;10.038;2023-05-10T08:31:10;6.50;;;2.80;;
29940;SDS011;16801;53.562;10.038;2023-05-10T08:34:32;2.03;;;1.93;;
29940;SDS011;16801;53.562;10.038;2023-05-10T08:37:52;3.07;;;2.70;;
29940;SDS011;16801;53.562;10.038;2023-05-10T08:41:13;3.27;;;2.23;;
29940;SDS011;16801;53.562;10.038;2023-05-10T08:44:34;3.70;;;2.20;;
29940;SDS011;16801;53.562;10.038;2023-05-10T08:47:55;7.07;;;2.70;;
29940;SDS011;16801;53.562;10.038;2023-05-10T08:51:17;2.70;;;2.50;;
29940;SDS011;16801;53.562;10.038;2023-05-10T08:54:38;5.30;;;2.37;;
29940;SDS011;16801;53.562;10.038;2023-05-10T08:57:59;3.03;;;2.37;;
29940;SDS011;16801;53.562;10.038;2023-05-10T09:01:19;3.40;;;2.57;;
29940;SDS011;16801;53.562;10.038;2023-05-10T09:04:40;3.13;;;2.83;;
29940;SDS011;16801;53.562;10.038;2023-05-10T09:08:02;2.97;;;2.70;;
29940;SDS011;16801;53.562;10.038;2023-05-10T09:11:22;3.53;;;3.03;;
29940;SDS011;16801;53.562;10.038;2023-05-10T09:14:43;3.43;;;2.93;;
29940;SDS011;16801;53.562;10.038;2023-05-10T09:18:04;3.17;;;2.40;;
29940;SDS011;16801;53.562;10.038;2023-05-10T09:21:25;2.70;;;2.50;;
29940;SDS011;16801;53.562;10.038;2023-05-10T09:24:47;2.40;;;2.20;;
29940;SDS011;16801;53.562;10.038;2023-05-10T09:28:08;7.00;;;3.73;;
29940;SDS011;16801;53.562;10.038;2023-05-10T09:31:44;2.23;;;2.03;;
29940;SDS011;16801;53.562;10.038;2023-05-10T09:35:06;4.00;;;2.90;;
29940;SDS011;16801;53.562;10.038;2023-05-10T09:38:26;4.07;;;2.77;;
29940;SDS011;16801;53.562;10.038;2023-05-10T09:41:49;4.10;;;3.70;;
29940;SDS011;16801;53.562;10.038;2023-05-10T09:45:09;2.77;;;2.57;;
29940;SDS011;16801;53.562;10.038;2023-05-10T09:48:30;3.93;;;2.90;;
29940;SDS011;16801;53.562;10.038;2023-05-10T09:52:00;3.43;;;3.13;;
29940;SDS011;16801;53.562;10.038;2023-05-10T09:55:22;3.30;;;3.10;;
29940;SDS011;16801;53.562;10.038;2023-05-10T09:58:44;5.10;;;2.70;;
29940;SDS011;16801;53.562;10.038;2023-05-10T10:02:05;2.93;;;2.53;;
29940;SDS011;16801;53.562;10.038;2023-05-10T10:05:29;3.77;;;3.47;;
29940;SDS011;16801;53.562;10.038;2023-05-10T10:08:49;4.80;;;3.40;;
29940;SDS011;16801;53.562;10.038;2023-05-10T10:12:10;4.13;;;3.73;;
29940;SDS011;16801;53.562;10.038;2023-05-10T10:15:32;4.17;;;3.60;;
29940;SDS011;16801;53.562;10.038;2023-05-10T10:18:53;3.73;;;3.20;;
29940;SDS011;16801;53.562;10.038;2023-05-10T10:22:13;3.20;;;2.57;;
29940;SDS011;16801;53.562;10.038;2023-05-10T10:25:34;3.10;;;2.90;;
29940;SDS011;16801;53.562;10.038;2023-05-10T10:28:57;5.57;;;3.93;;
29940;SDS011;16801;53.562;10.038;2023-05-10T10:32:24;4.57;;;3.73;;
29940;SDS011;16801;53.562;10.038;2023-05-10T10:35:46;7.63;;;3.63;;
29940;SDS011;16801;53.562;10.038;2023-05-10T10:39:08;4.37;;;3.90;;
29940;SDS011;16801;53.562;10.038;2023-05-10T10:42:43;3.90;;;3.60;;
29940;SDS011;16801;53.562;10.038;2023-05-10T10:46:10;4.37;;;3.90;;
29940;SDS011;16801;53.562;10.038;2023-05-10T10:49:33;3.80;;;3.50;;
29940;SDS011;16801;53.562;10.038;2023-05-10T10:52:53;5.63;;;3.70;;
29940;SDS011;16801;53.562;10.038;2023-05-10T10:56:14;5.63;;;3.93;;
29940;SDS011;16801;53.562;10.038;2023-05-10T10:59:35;6.37;;;3.50;;
29940;SDS011;16801;53.562;10.038;2023-05-10T11:02:56;4.87;;;4.43;;
29940;SDS011;16801;53.562;10.038;2023-05-10T11:06:18;6.33;;;4.73;;
29940;SDS011;16801;53.562;10.038;2023-05-10T11:09:48;4.10;;;3.73;;
29940;SDS011;16801;53.562;10.038;2023-05-10T11:13:09;4.37;;;3.97;;
29940;SDS011;16801;53.562;10.038;2023-05-10T11:16:30;5.40;;;4.90;;
29940;SDS011;16801;53.562;10.038;2023-05-10T11:20:07;4.50;;;4.17;;
29940;SDS011;16801;53.562;10.038;2023-05-10T11:23:32;4.23;;;3.83;;
29940;SDS011;16801;53.562;10.038;2023-05-10T11:27:07;4.10;;;3.70;;
29940;SDS011;16801;53.562;10.038;2023-05-10T11:30:27;3.57;;;3.20;;
29940;SDS011;16801;53.562;10.038;2023-05-10T11:33:49;4.37;;;3.97;;
29940;SDS011;16801;53.562;10.038;2023-05-10T11:37:10;4.83;;;3.90;;
29940;SDS011;16801;53.562;10.038;2023-05-10T11:40:32;4.53;;;3.77;;
29940;SDS011;16801;53.562;10.038;2023-05-10T11:43:53;4.70;;;4.23;;
29940;SDS011;16801;53.562;10.038;2023-05-10T11:47:13;5.23;;;4.00;;
29940;SDS011;16801;53.562;10.038;2023-05-10T11:50:34;4.67;;;4.20;;
29940;SDS011;16801;53.562;10.038;2023-05-10T11:53:55;7.30;;;5.23;;
29940;SDS011;16801;53.562;10.038;2023-05-10T11:57:17;4.77;;;4.37;;
29940;SDS011;16801;53.562;10.038;2023-05-10T12:00:38;4.30;;;4.00;;
29940;SDS011;16801;53.562;10.038;2023-05-10T12:03:59;4.70;;;4.40;;
29940;SDS011;16801;53.562;10.038;2023-05-10T12:07:20;5.13;;;4.73;;
29940;SDS011;16801;53.562;10.038;2023-05-10T12:10:40;5.37;;;4.93;;
29940;SDS011;16801;53.562;10.038;2023-05-10T12:14:03;6.30;;;5.70;;
29940;SDS011;16801;53.562;10.038;2023-05-10T12:17:27;4.47;;;3.97;;
29940;SDS011;16801;53.562;10.038;2023-05-10T12:20:47;6.53;;;4.63;;
29940;SDS011;16801;53.562;10.038;2023-05-10T12:24:08;5.87;;;5.00;;
29940;SDS011;16801;53.562;10.038;2023-05-10T12:27:31;5.30;;;4.77;;
29940;SDS011;16801;53.562;10.038;2023-05-10T12:30:53;3.97;;;3.67;;
29940;SDS011;16801;53.562;10.038;2023-05-10T12:34:21;4.90;;;4.50;;
29940;SDS011;16801;53.562;10.038;2023-05-10T12:37:42;4.50;;;3.47;;
29940;SDS011;16801;53.562;10.038;2023-05-10T12:41:06;4.43;;;4.10;;
29940;SDS011;16801;53.562;10.038;2023-05-10T12:44:26;4.83;;;4.43;;
29940;SDS011;16801;53.562;10.038;2023-05-10T12:47:48;4.57;;;3.87;;
29940;SDS011;16801;53.562;10.038;2023-05-10T12:51:09;4.60;;;4.13;;
29940;SDS011;16801;53.562;10.038;2023-05-10T12:54:31;4.33;;;3.70;;
29940;SDS011;16801;53.562;10.038;2023-05-10T12:57:52;3.83;;;3.53;;
29940;SDS011;16801;53.562;10.038;2023-05-10T13:01:12;9.27;;;6.43;;
29940;SDS011;16801;53.562;10.038;2023-05-10T13:04:35;4.00;;;3.70;;
29940;SDS011;16801;53.562;10.038;2023-05-10T13:07:58;4.00;;;3.70;;
29940;SDS011;16801;53.562;10.038;2023-05-10T13:11:19;4.32;;;3.88;;
29940;SDS011;16801;53.562;10.038;2023-05-10T13:14:40;3.90;;;3.55;;
29940;SDS011;16801;53.562;10.038;2023-05-10T13:18:01;3.17;;;2.63;;
29940;SDS011;16801;53.562;10.038;2023-05-10T13:21:23;3.87;;;3.57;;
29940;SDS011;16801;53.562;10.038;2023-05-10T13:24:44;3.13;;;2.93;;
29940;SDS011;16801;53.562;10.038;2023-05-10T13:28:04;2.73;;;2.53;;
29940;SDS011;16801;53.562;10.038;2023-05-10T13:31:25;2.73;;;2.53;;
29940;SDS011;16801;53.562;10.038;2023-05-10T13:34:46;3.20;;;2.90;;
29940;SDS011;16801;53.562;10.038;2023-05-10T13:38:07;3.15;;;2.85;;
29940;SDS011;16801;53.562;10.038;2023-05-10T13:41:28;3.50;;;3.20;;
29940;SDS011;16801;53.562;10.038;2023-05-10T13:44:48;3.40;;;3.10;;
29940;SDS011;16801;53.562;10.038;2023-05-10T13:48:08;4.07;;;3.78;;
29940;SDS011;16801;53.562;10.038;2023-05-10T13:51:29;4.40;;;4.00;;
29940;SDS011;16801;53.562;10.038;2023-05-10T13:54:52;3.87;;;3.07;;
29940;SDS011;16801;53.562;10.038;2023-05-10T13:58:14;3.00;;;2.77;;
29940;SDS011;16801;53.562;10.038;2023-05-10T14:01:34;3.20;;;2.90;;
29940;SDS011;16801;53.562;10.038;2023-05-10T14:04:55;3.73;;;3.43;;
29940;SDS011;16801;53.562;10.038;2023-05-10T14:08:16;4.28;;;3.88;;
29940;SDS011;16801;53.562;10.038;2023-05-10T14:11:37;3.80;;;3.50;;
29940;SDS011;16801;53.562;10.038;2023-05-10T14:15:01;5.07;;;4.20;;
29940;SDS011;16801;53.562;10.038;2023-05-10T14:18:21;3.57;;;3.27;;
29940;SDS011;16801;53.562;10.038;2023-05-10T14:21:42;3.07;;;2.87;;
29940;SDS011;16801;53.562;10.038;2023-05-10T14:25:03;2.70;;;2.50;;
29940;SDS011;16801;53.562;10.038;2023-05-10T14:28:24;3.30;;;3.00;;
29940;SDS011;16801;53.562;10.038;2023-05-10T14:31:45;3.92;;;2.30;;
29940;SDS011;16801;53.562;10.038;2023-05-10T14:35:06;3.08;;;2.78;;
29940;SDS011;16801;53.562;10.038;2023-05-10T14:38:27;3.17;;;2.88;;
29940;SDS011;16801;53.562;10.038;2023-05-10T14:41:47;3.13;;;2.92;;
29940;SDS011;16801;53.562;10.038;2023-05-10T14:45:09;4.37;;;2.20;;
29940;SDS011;16801;53.562;10.038;2023-05-10T14:48:31;2.77;;;2.57;;
29940;SDS011;16801;53.562;10.038;2023-05-10T14:51:52;3.70;;;3.20;;
29940;SDS011;16801;53.562;10.038;2023-05-10T14:55:12;4.57;;;4.17;;
29940;SDS011;16801;53.562;10.038;2023-05-10T14:58:33;2.67;;;2.57;;
29940;SDS011;16801;53.562;10.038;2023-05-10T15:01:55;3.07;;;2.67;;
29940;SDS011;16801;53.562;10.038;2023-05-10T15:05:15;3.13;;;2.83;;
29940;SDS011;16801;53.562;10.038;2023-05-10T15:08:36;2.97;;;2.70;;
29940;SDS011;16801;53.562;10.038;2023-05-10T15:11:56;4.00;;;2.50;;
29940;SDS011;16801;53.562;10.038;2023-05-10T15:15:17;3.10;;;2.90;;
29940;SDS011;16801;53.562;10.038;2023-05-10T15:18:38;3.67;;;3.38;;
29940;SDS011;16801;53.562;10.038;2023-05-10T15:21:59;2.85;;;2.05;;
29940;SDS011;16801;53.562;10.038;2023-05-10T15:25:19;2.80;;;2.60;;
29940;SDS011;16801;53.562;10.038;2023-05-10T15:28:40;3.43;;;2.50;;
29940;SDS011;16801;53.562;10.038;2023-05-10T15:32:01;2.85;;;2.58;;
29940;SDS011;16801;53.562;10.038;2023-05-10T15:35:23;2.22;;;2.13;;
29940;SDS011;16801;53.562;10.038;2023-05-10T15:38:43;3.95;;;2.55;;
29940;SDS011;16801;53.562;10.038;2023-05-10T15:42:04;2.25;;;2.08;;
29940;SDS011;16801;53.562;10.038;2023-05-10T15:45:25;3.10;;;2.58;;
29940;SDS011;16801;53.562;10.038;2023-05-10T15:48:45;2.73;;;2.40;;
29940;SDS011;16801;53.562;10.038;2023-05-10T15:52:07;2.20;;;2.00;;
29940;SDS011;16801;53.562;10.038;2023-05-10T15:55:28;2.22;;;1.92;;
29940;SDS011;16801;53.562;10.038;2023-05-10T15:58:49;2.80;;;2.60;;
29940;SDS011;16801;53.562;10.038;2023-05-10T16:02:09;2.73;;;2.47;;
29940;SDS011;16801;53.562;10.038;2023-05-10T16:05:30;2.33;;;2.13;;
29940;SDS011;16801;53.562;10.038;2023-05-10T16:08:53;3.45;;;2.75;;
29940;SDS011;16801;53.562;10.038;2023-05-10T16:12:13;2.93;;;2.73;;
29940;SDS011;16801;53.562;10.038;2023-05-10T16:15:34;3.93;;;3.63;;
29940;SDS011;16801;53.562;10.038;2023-05-10T16:18:55;3.13;;;2.93;;
29940;SDS011;16801;53.562;10.038;2023-05-10T16:22:15;3.17;;;2.93;;
29940;SDS011;16801;53.562;10.038;2023-05-10T16:25:38;4.70;;;4.30;;
29940;SDS011;16801;53.562;10.038;2023-05-10T16:28:58;2.77;;;2.57;;
29940;SDS011;16801;53.562;10.038;2023-05-10T16:32:19;3.73;;;3.20;;
29940;SDS011;16801;53.562;10.038;2023-05-10T16:35:40;5.07;;;3.70;;
29940;SDS011;16801;53.562;10.038;2023-05-10T16:39:00;3.67;;;3.40;;
29940;SDS011;16801;53.562;10.038;2023-05-10T16:42:22;8.10;;;3.93;;
29940;SDS011;16801;53.562;10.038;2023-05-10T16:45:44;4.43;;;4.03;;
29940;SDS011;16801;53.562;10.038;2023-05-10T16:49:05;5.43;;;3.83;;
29940;SDS011;16801;53.562;10.038;2023-05-10T16:52:25;4.37;;;3.33;;
29940;SDS011;16801;53.562;10.038;2023-05-10T16:55:46;3.53;;;3.23;;
29940;SDS011;16801;53.562;10.038;2023-05-10T16:59:07;5.23;;;3.80;;
29940;SDS011;16801;53.562;10.038;2023-05-10T17:02:28;6.57;;;3.47;;
29940;SDS011;16801;53.562;10.038;2023-05-10T17:05:48;4.67;;;3.30;;
29940;SDS011;16801;53.562;10.038;2023-05-10T17:09:09;6.30;;;2.47;;
29940;SDS011;16801;53.562;10.038;2023-05-10T17:12:30;3.23;;;2.70;;
29940;SDS011;16801;53.562;10.038;2023-05-10T17:15:52;7.47;;;2.97;;
29940;SDS011;16801;53.562;10.038;2023-05-10T17:19:12;2.23;;;2.13;;
29940;SDS011;16801;53.562;10.038;2023-05-10T17:22:33;2.83;;;2.63;;
29940;SDS011;16801;53.562;10.038;2023-05-10T17:25:53;2.87;;;2.67;;
29940;SDS011;16801;53.562;10.038;2023-05-10T17:29:15;3.23;;;2.93;;
29940;SDS011;16801;53.562;10.038;2023-05-10T17:32:36;2.73;;;2.53;;
29940;SDS011;16801;53.562;10.038;2023-05-10T17:35:57;2.40;;;1.80;;
29940;SDS011;16801;53.562;10.038;2023-05-10T17:39:19;1.47;;;1.37;;
29940;SDS011;16801;53.562;10.038;2023-05-10T17:42:39;2.50;;;2.30;;
29940;SDS011;16801;53.562;10.038;2023-05-10T17:46:00;2.97;;;2.60;;
29940;SDS011;16801;53.562;10.038;2023-05-10T17:49:21;2.90;;;2.07;;
29940;SDS011;16801;53.562;10.038;2023-05-10T17:52:42;2.17;;;1.93;;
29940;SDS011;16801;53.562;10.038;2023-05-10T17:56:03;2.40;;;2.20;;
29940;SDS011;16801;53.562;10.038;2023-05-10T17:59:25;3.27;;;2.37;;
29940;SDS011;16801;53.562;10.038;2023-05-10T18:02:46;1.97;;;1.70;;
29940;SDS011;16801;53.562;10.038;2023-05-10T18:06:08;2.10;;;2.00;;
29940;SDS011;16801;53.562;10.038;2023-05-10T18:09:29;1.80;;;1.70;;
29940;SDS011;16801;53.562;10.038;2023-05-10T18:12:49;2.10;;;2.00;;
29940;SDS011;16801;53.562;10.038;2023-05-10T18:16:10;2.20;;;2.10;;
29940;SDS011;16801;53.562;10.038;2023-05-10T18:19:31;2.43;;;2.23;;
29940;SDS011;16801;53.562;10.038;2023-05-10T18:22:53;2.63;;;2.37;;
29940;SDS011;16801;53.562;10.038;2023-05-10T18:26:14;3.27;;;2.97;;
29940;SDS011;16801;53.562;10.038;2023-05-10T18:29:36;2.23;;;2.10;;
29940;SDS011;16801;53.562;10.038;2023-05-10T18:32:57;2.33;;;2.23;;
29940;SDS011;16801;53.562;10.038;2023-05-10T18:36:17;3.00;;;2.70;;
29940;SDS011;16801;53.562;10.038;2023-05-10T18:39:39;2.83;;;2.63;;
29940;SDS011;16801;53.562;10.038;2023-05-10T18:43:00;3.20;;;3.00;;
29940;SDS011;16801;53.562;10.038;2023-05-10T18:46:20;2.67;;;2.47;;
29940;SDS011;16801;53.562;10.038;2023-05-10T18:49:41;2.07;;;1.97;;
29940;SDS011;16801;53.562;10.038;2023-05-10T18:53:03;2.83;;;2.57;;
29940;SDS011;16801;53.562;10.038;2023-05-10T18:56:25;3.07;;;2.80;;
29940;SDS011;16801;53.562;10.038;2023-05-10T18:59:46;4.10;;;3.10;;
29940;SDS011;16801;53.562;10.038;2023-05-10T19:03:06;2.43;;;2.33;;
29940;SDS011;16801;53.562;10.038;2023-05-10T19:06:26;2.97;;;2.77;;
29940;SDS011;16801;53.562;10.038;2023-05-10T19:09:47;4.50;;;2.83;;
29940;SDS011;16801;53.562;10.038;2023-05-10T19:13:09;3.33;;;3.03;;
29940;SDS011;16801;53.562;10.038;2023-05-10T19:16:30;3.20;;;3.00;;
29940;SDS011;16801;53.562;10.038;2023-05-10T19:19:52;2.43;;;2.20;;
29940;SDS011;16801;53.562;10.038;2023-05-10T19:23:13;3.50;;;3.20;;
29940;SDS011;16801;53.562;10.038;2023-05-10T19:26:33;3.30;;;3.10;;
29940;SDS011;16801;53.562;10.038;2023-05-10T19:29:55;2.63;;;2.43;;
29940;SDS011;16801;53.562;10.038;2023-05-10T19:33:16;3.00;;;2.80;;
29940;SDS011;16801;53.562;10.038;2023-05-10T19:36:36;2.93;;;2.30;;
29940;SDS011;16801;53.562;10.038;2023-05-10T19:39:57;2.70;;;2.20;;
29940;SDS011;16801;53.562;10.038;2023-05-10T19:43:17;2.90;;;2.70;;
29940;SDS011;16801;53.562;10.038;2023-05-10T19:46:39;2.43;;;2.23;;
29940;SDS011;16801;53.562;10.038;2023-05-10T19:50:00;2.27;;;2.03;;
29940;SDS011;16801;53.562;10.038;2023-05-10T19:53:20;2.30;;;1.60;;
29940;SDS011;16801;53.562;10.038;2023-05-10T19:56:41;2.10;;;2.00;;